createdAt,value
2019-05-09T00:01:08.012Z,96.72
2019-05-09T00:03:34.257Z,96.58
2019-05-09T00:06:00.495Z,97.53
2019-05-09T00:08:26.724Z,97.17
2019-05-09T00:10:53.579Z,96.93
2019-05-09T00:13:19.907Z,96.85
2019-05-09T00:15:46.153Z,96.64
2019-05-09T00:18:14.302Z,96.89
2019-05-09T00:20:48.187Z,97.73
2019-05-09T00:23:14.421Z,96.91
2019-05-09T00:25:40.672Z,95.94
2019-05-09T00:28:07.114Z,94.69
2019-05-09T00:30:43.899Z,95.30
2019-05-09T00:33:10.333Z,95.93
2019-05-09T00:35:37.062Z,96.00
2019-05-09T00:38:04.613Z,96.00
2019-05-09T00:40:30.832Z,96.01
2019-05-09T00:42:57.096Z,95.31
2019-05-09T00:45:25.245Z,95.35
2019-05-09T00:47:53.866Z,95.09
2019-05-09T00:50:19.618Z,95.48
2019-05-09T00:52:45.874Z,95.29
2019-05-09T00:55:13.210Z,95.24
2019-05-09T00:57:39.548Z,95.02
2019-05-09T01:00:14.648Z,94.97
2019-05-09T01:02:40.786Z,95.58
2019-05-09T01:05:07.241Z,95.64
2019-05-09T01:07:33.770Z,95.88
2019-05-09T01:10:00.024Z,95.76
2019-05-09T01:12:26.261Z,95.48
2019-05-09T01:14:53.898Z,95.53
2019-05-09T01:17:20.246Z,95.81
2019-05-09T01:19:46.795Z,96.08
2019-05-09T01:22:13.313Z,96.09
2019-05-09T01:24:39.675Z,96.09
2019-05-09T01:27:05.916Z,96.30
2019-05-09T01:29:33.744Z,96.71
2019-05-09T01:32:03.558Z,97.20
2019-05-09T01:34:33.126Z,97.47
2019-05-09T01:37:06.384Z,97.57
2019-05-09T01:39:35.888Z,97.47
2019-05-09T01:42:03.266Z,97.36
2019-05-09T01:44:29.781Z,97.42
2019-05-09T01:46:56.007Z,97.82
2019-05-09T01:49:23.238Z,97.77
2019-05-09T01:51:49.626Z,97.78
2019-05-09T01:54:17.255Z,97.71
2019-05-09T01:56:43.501Z,97.90
2019-05-09T01:59:09.723Z,97.90
2019-05-09T02:01:35.970Z,97.83
2019-05-09T02:04:04.111Z,97.55
2019-05-09T02:06:30.350Z,97.90
2019-05-09T02:08:56.588Z,97.83
2019-05-09T02:11:23.842Z,97.68
2019-05-09T02:13:50.348Z,97.74
2019-05-09T02:16:27.008Z,97.63
2019-05-09T02:19:00.609Z,97.54
2019-05-09T02:21:26.854Z,97.58
2019-05-09T02:23:53.783Z,97.47
2019-05-09T02:26:20.130Z,97.48
2019-05-09T02:28:46.364Z,97.43
2019-05-09T02:31:16.142Z,97.45
2019-05-09T02:33:40.744Z,97.59
2019-05-09T02:36:09.650Z,97.72
2019-05-09T02:38:35.180Z,97.60
2019-05-09T02:41:01.404Z,97.55
2019-05-09T02:43:29.153Z,97.30
2019-05-09T02:46:03.382Z,97.18
2019-05-09T02:48:29.617Z,97.10
2019-05-09T02:50:55.863Z,97.16
2019-05-09T02:53:22.107Z,97.80
2019-05-09T02:55:49.499Z,97.73
2019-05-09T02:58:20.274Z,97.96
2019-05-09T03:00:53.569Z,98.24
2019-05-09T03:03:21.606Z,97.90
2019-05-09T03:05:48.788Z,97.13
2019-05-09T03:08:15.214Z,96.85
2019-05-09T03:10:41.433Z,96.52
2019-05-09T03:13:09.401Z,96.22
2019-05-09T03:15:39.134Z,96.22
2019-05-09T03:18:03.958Z,96.03
2019-05-09T03:20:49.387Z,95.98
2019-05-09T03:23:18.865Z,95.85
2019-05-09T03:25:44.199Z,95.83
2019-05-09T03:28:21.068Z,95.73
2019-05-09T03:30:51.629Z,95.76
2019-05-09T03:33:20.144Z,95.64
2019-05-09T03:35:48.095Z,95.30
2019-05-09T03:38:14.136Z,95.24
2019-05-09T03:40:40.372Z,95.60
2019-05-09T03:43:07.969Z,95.59
2019-05-09T03:45:42.150Z,95.41
2019-05-09T03:48:10.189Z,95.16
2019-05-09T03:50:38.301Z,94.91
2019-05-09T03:53:04.583Z,95.33
2019-05-09T03:55:32.617Z,95.46
2019-05-09T03:58:00.660Z,95.29
2019-05-09T04:00:28.359Z,95.63
2019-05-09T04:02:54.829Z,94.97
2019-05-09T04:05:21.075Z,94.84
2019-05-09T04:07:47.982Z,94.61
2019-05-09T04:10:14.264Z,93.74
2019-05-09T04:12:52.884Z,93.18
2019-05-09T04:15:08.642Z,92.76
2019-05-09T04:17:38.187Z,92.70
2019-05-09T04:20:04.745Z,93.03
2019-05-09T04:22:30.994Z,91.61
2019-05-09T04:24:57.721Z,90.92
2019-05-09T04:27:29.670Z,90.45
2019-05-09T04:29:54.125Z,90.82
2019-05-09T04:32:20.359Z,90.57
2019-05-09T04:34:47.320Z,90.80
2019-05-09T04:37:13.668Z,90.36
2019-05-09T04:39:40.738Z,90.57
2019-05-09T04:42:08.324Z,90.40
2019-05-09T04:44:37.472Z,89.79
2019-05-09T04:47:04.080Z,88.61
2019-05-09T04:49:39.288Z,88.03
2019-05-09T04:51:58.624Z,88.26
2019-05-09T04:54:24.862Z,88.06
2019-05-09T04:56:53.774Z,87.42
2019-05-09T04:59:19.247Z,86.98
2019-05-09T05:01:50.089Z,86.76
2019-05-09T05:04:18.086Z,86.69
2019-05-09T05:06:44.505Z,86.17
2019-05-09T05:09:10.737Z,86.20
2019-05-09T05:11:38.317Z,86.20
2019-05-09T05:14:04.722Z,84.74
2019-05-09T05:16:31.159Z,83.20
2019-05-09T05:18:58.385Z,80.59
2019-05-09T05:21:24.844Z,78.51
2019-05-09T05:23:57.606Z,75.34
2019-05-09T05:26:23.810Z,75.14
2019-05-09T05:28:50.047Z,74.59
2019-05-09T05:31:18.088Z,75.63
2019-05-09T05:33:49.011Z,76.55
2019-05-09T05:36:19.132Z,74.59
2019-05-09T05:38:47.832Z,75.17
2019-05-09T05:41:13.528Z,72.82
2019-05-09T05:43:44.395Z,72.11
2019-05-09T05:46:28.527Z,69.75
2019-05-09T05:48:57.811Z,69.68
2019-05-09T05:51:24.124Z,67.56
2019-05-09T05:53:50.379Z,65.24
2019-05-09T05:56:17.633Z,65.86
2019-05-09T05:58:44.170Z,63.69
2019-05-09T06:01:10.412Z,63.25
2019-05-09T06:03:37.661Z,62.15
2019-05-09T06:06:04.181Z,61.73
2019-05-09T06:08:30.430Z,62.97
2019-05-09T06:10:57.608Z,60.67
2019-05-09T06:13:24.124Z,61.27
2019-05-09T06:15:50.353Z,59.43
2019-05-09T06:18:18.373Z,61.73
2019-05-09T06:20:45.677Z,61.18
2019-05-09T06:23:12.895Z,60.06
2019-05-09T06:25:39.136Z,58.88
2019-05-09T06:28:07.491Z,59.07
2019-05-09T06:30:33.637Z,55.70
2019-05-09T06:32:59.951Z,52.25
2019-05-09T06:35:28.247Z,57.30
2019-05-09T06:37:54.553Z,55.72
2019-05-09T06:40:24.342Z,53.92
2019-05-09T06:42:50.855Z,54.64
2019-05-09T06:45:32.670Z,52.68
2019-05-09T06:48:00.452Z,53.66
2019-05-09T06:50:27.357Z,57.41
2019-05-09T06:52:53.708Z,59.04
2019-05-09T06:55:19.950Z,59.20
2019-05-09T06:57:48.696Z,60.75
2019-05-09T07:00:28.705Z,58.78
2019-05-09T07:03:00.840Z,60.43
2019-05-09T07:05:31.946Z,59.91
2019-05-09T07:08:14.781Z,58.99
2019-05-09T07:10:41.060Z,59.03
2019-05-09T07:13:07.956Z,57.50
2019-05-09T07:15:34.329Z,60.69
2019-05-09T07:18:00.581Z,60.43
2019-05-09T07:20:28.446Z,60.04
2019-05-09T07:22:55.157Z,60.29
2019-05-09T07:25:23.217Z,59.89
2019-05-09T07:27:49.469Z,58.97
2019-05-09T07:30:24.375Z,59.23
2019-05-09T07:32:52.445Z,59.11
2019-05-09T07:35:18.813Z,59.11
2019-05-09T07:37:45.104Z,60.38
2019-05-09T07:40:11.463Z,60.55
2019-05-09T07:42:39.126Z,60.73
2019-05-09T07:45:05.636Z,59.75
2019-05-09T07:47:31.863Z,59.82
2019-05-09T07:49:58.617Z,60.24
2019-05-09T07:52:24.947Z,58.04
2019-05-09T07:54:51.189Z,57.21
2019-05-09T07:57:18.161Z,54.85
2019-05-09T07:59:44.683Z,55.26
2019-05-09T08:02:10.914Z,55.13
2019-05-09T08:04:38.606Z,54.39
2019-05-09T08:07:05.088Z,54.06
2019-05-09T08:09:31.335Z,53.69
2019-05-09T08:11:58.746Z,54.81
2019-05-09T08:14:25.212Z,54.89
2019-05-09T08:16:51.444Z,57.15
2019-05-09T08:19:18.165Z,57.64
2019-05-09T08:21:44.521Z,56.00
2019-05-09T08:24:10.780Z,54.32
2019-05-09T08:26:39.334Z,53.76
2019-05-09T08:29:05.179Z,54.22
2019-05-09T08:31:31.424Z,52.93
2019-05-09T08:33:59.437Z,52.92
2019-05-09T08:36:27.993Z,53.42
2019-05-09T08:38:53.973Z,52.54
2019-05-09T08:41:20.223Z,52.07
2019-05-09T08:43:48.382Z,54.18
2019-05-09T08:46:14.587Z,54.32
2019-05-09T08:48:40.824Z,54.91
2019-05-09T08:51:11.380Z,54.16
2019-05-09T08:53:38.151Z,53.29
2019-05-09T08:56:04.562Z,53.10
2019-05-09T08:58:30.792Z,52.89
2019-05-09T09:01:03.914Z,51.83
2019-05-09T09:03:25.200Z,51.65
2019-05-09T09:05:51.481Z,51.25
2019-05-09T09:08:18.442Z,50.91
2019-05-09T09:10:44.876Z,49.66
2019-05-09T09:13:11.123Z,51.60
2019-05-09T09:16:02.484Z,51.29
2019-05-09T09:18:05.545Z,51.85
2019-05-09T09:20:31.784Z,52.00
2019-05-09T09:22:58.465Z,47.02
2019-05-09T09:25:24.890Z,48.78
2019-05-09T09:27:51.296Z,47.79
2019-05-09T09:30:24.721Z,45.99
2019-05-09T09:32:47.955Z,47.25
2019-05-09T09:35:14.216Z,49.24
2019-05-09T09:37:48.481Z,49.32
2019-05-09T09:40:08.969Z,47.83
2019-05-09T09:42:35.253Z,48.49
2019-05-09T09:45:01.606Z,48.50
2019-05-09T09:47:28.606Z,46.92
2019-05-09T09:49:55.471Z,47.62
2019-05-09T09:52:23.234Z,46.63
2019-05-09T09:54:49.470Z,46.70
2019-05-09T09:57:18.817Z,46.18
2019-05-09T09:59:48.290Z,45.69
2019-05-09T10:02:15.634Z,45.23
2019-05-09T10:04:41.893Z,46.48
2019-05-09T10:07:08.862Z,44.71
2019-05-09T10:09:35.400Z,45.29
2019-05-09T10:12:01.650Z,43.23
2019-05-09T10:14:32.760Z,44.01
2019-05-09T10:17:03.647Z,44.13
2019-05-09T10:19:34.287Z,44.08
2019-05-09T10:22:08.509Z,45.24
2019-05-09T10:24:35.031Z,44.66
2019-05-09T10:27:09.088Z,46.85
2019-05-09T10:29:35.512Z,46.00
2019-05-09T10:32:02.652Z,48.31
2019-05-09T10:34:28.976Z,48.09
2019-05-09T10:36:55.253Z,47.36
2019-05-09T10:39:21.505Z,47.73
2019-05-09T10:41:48.289Z,48.47
2019-05-09T10:44:18.918Z,46.22
2019-05-09T10:46:53.764Z,47.90
2019-05-09T10:49:15.121Z,48.79
2019-05-09T10:51:41.365Z,48.02
2019-05-09T10:54:08.286Z,48.96
2019-05-09T10:56:34.643Z,47.82
2019-05-09T10:59:00.881Z,47.85
2019-05-09T11:01:29.521Z,47.13
2019-05-09T11:03:55.282Z,46.79
2019-05-09T11:06:21.542Z,44.82
2019-05-09T11:08:48.109Z,47.06
2019-05-09T11:11:14.542Z,45.30
2019-05-09T11:13:40.873Z,46.00
2019-05-09T11:16:07.679Z,45.73
2019-05-09T11:18:34.055Z,45.47
2019-05-09T11:21:00.300Z,46.06
2019-05-09T11:23:28.999Z,44.39
2019-05-09T11:25:54.692Z,43.83
2019-05-09T11:28:20.942Z,44.06
2019-05-09T11:30:47.729Z,44.95
2019-05-09T11:33:14.023Z,44.97
2019-05-09T11:35:40.261Z,44.40
2019-05-09T11:38:08.434Z,43.94
2019-05-09T11:40:34.657Z,44.34
2019-05-09T11:43:00.898Z,43.52
2019-05-09T11:45:28.073Z,42.52
2019-05-09T11:47:54.499Z,41.31
2019-05-09T11:50:23.250Z,43.24
2019-05-09T11:52:49.210Z,41.47
2019-05-09T11:55:29.847Z,42.77
2019-05-09T11:57:43.741Z,41.70
2019-05-09T12:00:10.690Z,42.89
2019-05-09T12:02:38.489Z,40.83
2019-05-09T12:05:05.374Z,41.50
2019-05-09T12:07:31.615Z,42.99
2019-05-09T12:09:58.917Z,41.93
2019-05-09T12:12:28.124Z,42.60
2019-05-09T12:14:53.557Z,41.87
2019-05-09T12:17:19.970Z,40.12
2019-05-09T12:19:48.756Z,42.15
2019-05-09T12:22:14.492Z,40.67
2019-05-09T12:24:40.745Z,41.22
2019-05-09T12:27:08.711Z,41.86
2019-05-09T12:29:35.135Z,40.14
2019-05-09T12:32:01.385Z,42.00
2019-05-09T12:34:27.789Z,40.71
2019-05-09T12:36:54.075Z,40.79
2019-05-09T12:39:20.310Z,40.86
2019-05-09T12:41:48.432Z,38.66
2019-05-09T12:44:14.699Z,38.91
2019-05-09T12:46:40.977Z,38.12
2019-05-09T12:49:08.991Z,38.80
2019-05-09T12:51:37.519Z,38.56
2019-05-09T12:54:03.503Z,38.47
2019-05-09T12:56:29.748Z,39.13
2019-05-09T12:58:57.957Z,38.89
2019-05-09T13:01:24.189Z,37.88
2019-05-09T13:03:50.435Z,38.06
2019-05-09T13:06:20.099Z,37.66
2019-05-09T13:08:44.877Z,38.00
2019-05-09T13:11:11.130Z,38.35
2019-05-09T13:13:40.846Z,37.67
2019-05-09T13:16:10.918Z,39.15
2019-05-09T13:18:53.656Z,36.83
2019-05-09T13:21:19.900Z,37.28
2019-05-09T13:23:51.889Z,38.36
2019-05-09T13:26:14.312Z,37.59
2019-05-09T13:28:40.569Z,37.86
2019-05-09T13:31:08.266Z,37.63
2019-05-09T13:33:34.681Z,37.24
2019-05-09T13:36:00.916Z,36.11
2019-05-09T13:38:27.667Z,34.13
2019-05-09T13:40:54.208Z,34.13
2019-05-09T13:43:20.501Z,36.77
2019-05-09T13:45:46.736Z,35.60
2019-05-09T13:48:27.066Z,34.77
2019-05-09T13:50:41.160Z,35.81
2019-05-09T13:53:07.695Z,35.81
2019-05-09T13:55:34.076Z,34.11
2019-05-09T13:58:00.321Z,34.61
2019-05-09T14:00:28.561Z,35.56
2019-05-09T14:02:54.751Z,33.39
2019-05-09T14:05:20.992Z,34.54
2019-05-09T14:07:49.152Z,32.75
2019-05-09T14:10:17.718Z,33.47
2019-05-09T14:12:43.560Z,32.66
2019-05-09T14:15:09.826Z,32.33
2019-05-09T14:17:48.377Z,32.79
2019-05-09T14:20:05.427Z,33.51
2019-05-09T14:22:33.414Z,33.56
2019-05-09T14:24:59.873Z,33.73
2019-05-09T14:27:28.368Z,34.56
2019-05-09T14:29:54.310Z,34.27
2019-05-09T14:32:20.542Z,34.80
2019-05-09T14:34:48.192Z,34.88
2019-05-09T14:37:14.747Z,34.52
2019-05-09T14:39:54.868Z,35.54
2019-05-09T14:42:09.355Z,34.70
2019-05-09T14:44:37.624Z,34.26
2019-05-09T14:47:03.734Z,35.06
2019-05-09T14:49:40.236Z,35.00
2019-05-09T14:51:58.125Z,34.86
2019-05-09T14:54:24.365Z,35.65
2019-05-09T14:56:50.616Z,36.02
2019-05-09T14:59:18.629Z,36.12
2019-05-09T15:01:45.005Z,36.35
2019-05-09T15:04:11.252Z,36.53
2019-05-09T15:06:37.563Z,36.89
2019-05-09T15:09:08.066Z,37.17
2019-05-09T15:11:34.139Z,37.57
2019-05-09T15:14:00.377Z,37.86
2019-05-09T15:16:28.261Z,37.52
2019-05-09T15:18:54.754Z,38.15
2019-05-09T15:21:21.002Z,37.58
2019-05-09T15:23:48.150Z,38.20
2019-05-09T15:26:14.595Z,38.84
2019-05-09T15:28:40.821Z,39.26
2019-05-09T15:31:08.849Z,38.94
2019-05-09T15:33:37.458Z,38.95
2019-05-09T15:36:03.345Z,38.69
2019-05-09T15:38:29.592Z,39.15
2019-05-09T15:40:55.916Z,39.43
2019-05-09T15:43:22.226Z,39.10
2019-05-09T15:45:53.241Z,39.31
2019-05-09T15:48:19.475Z,39.69
2019-05-09T15:50:47.599Z,40.17
2019-05-09T15:53:13.872Z,39.85
2019-05-09T15:55:40.115Z,40.10
2019-05-09T15:58:06.351Z,40.55
2019-05-09T16:00:34.248Z,40.69
2019-05-09T16:03:00.527Z,40.66
2019-05-09T16:05:26.766Z,40.97
2019-05-09T16:07:53.016Z,41.35
2019-05-09T16:10:19.243Z,41.52
2019-05-09T16:12:45.492Z,41.26
2019-05-09T16:15:11.821Z,41.34
2019-05-09T16:17:39.401Z,41.11
2019-05-09T16:20:08.416Z,41.19
2019-05-09T16:22:34.475Z,41.12
2019-05-09T16:25:00.720Z,41.66
2019-05-09T16:27:26.975Z,41.20
2019-05-09T16:29:53.216Z,42.00
2019-05-09T16:32:19.447Z,41.83
2019-05-09T16:34:45.692Z,41.88
2019-05-09T16:37:11.953Z,42.12
2019-05-09T16:39:38.194Z,42.14
2019-05-09T16:42:04.426Z,42.22
2019-05-09T16:44:30.677Z,42.48
2019-05-09T16:46:57.676Z,42.40
2019-05-09T16:49:25.881Z,42.88
2019-05-09T16:51:52.230Z,43.06
2019-05-09T16:54:21.352Z,43.37
2019-05-09T16:56:47.596Z,42.70
2019-05-09T16:59:13.845Z,42.89
2019-05-09T17:01:41.878Z,42.88
2019-05-09T17:04:08.325Z,42.76
2019-05-09T17:06:34.596Z,42.68
2019-05-09T17:09:00.828Z,43.27
2019-05-09T17:11:27.799Z,43.99
2019-05-09T17:13:54.397Z,44.46
2019-05-09T17:16:20.669Z,45.14
2019-05-09T17:18:48.654Z,45.78
2019-05-09T17:21:32.056Z,46.08
2019-05-09T17:23:59.384Z,46.93
2019-05-09T17:26:28.208Z,46.42
2019-05-09T17:28:53.777Z,46.67
2019-05-09T17:31:20.035Z,46.65
2019-05-09T17:33:48.535Z,46.25
2019-05-09T17:36:14.429Z,46.34
2019-05-09T17:38:40.657Z,46.94
2019-05-09T17:41:08.274Z,48.00
2019-05-09T17:43:34.689Z,47.26
2019-05-09T17:46:00.963Z,48.08
2019-05-09T17:48:28.566Z,47.75
2019-05-09T17:50:58.348Z,47.79
2019-05-09T17:53:24.594Z,48.18
2019-05-09T17:55:51.927Z,48.33
2019-05-09T17:58:29.124Z,48.25
2019-05-09T18:00:48.372Z,49.26
2019-05-09T18:03:14.536Z,49.37
2019-05-09T18:05:40.832Z,49.91
2019-05-09T18:08:08.060Z,49.52
2019-05-09T18:10:34.530Z,50.05
2019-05-09T18:13:00.781Z,49.94
2019-05-09T18:15:28.251Z,50.36
2019-05-09T18:17:54.663Z,51.14
2019-05-09T18:20:20.899Z,50.87
2019-05-09T18:22:47.884Z,50.89
2019-05-09T18:25:14.795Z,51.00
2019-05-09T18:27:41.043Z,51.23
2019-05-09T18:30:07.900Z,51.57
2019-05-09T18:32:42.994Z,52.86
2019-05-09T18:35:12.150Z,52.49
2019-05-09T18:37:38.371Z,52.83
2019-05-09T18:40:05.126Z,53.37
2019-05-09T18:42:31.388Z,52.46
2019-05-09T18:44:59.652Z,54.04
2019-05-09T18:47:27.834Z,53.15
2019-05-09T18:49:53.946Z,54.06
2019-05-09T18:52:20.180Z,53.69
2019-05-09T18:54:46.635Z,54.51
2019-05-09T18:57:12.974Z,54.89
2019-05-09T18:59:39.233Z,54.17
2019-05-09T19:02:05.475Z,54.32
2019-05-09T19:04:31.720Z,55.53
2019-05-09T19:06:57.959Z,54.88
2019-05-09T19:09:24.201Z,55.25
2019-05-09T19:11:50.601Z,55.31
2019-05-09T19:14:18.703Z,56.24
2019-05-09T19:17:03.892Z,56.00
2019-05-09T19:19:31.934Z,55.94
2019-05-09T19:22:04.663Z,55.77
2019-05-09T19:24:28.137Z,56.51
2019-05-09T19:26:54.356Z,56.65
2019-05-09T19:29:20.582Z,56.55
2019-05-09T19:31:46.830Z,56.55
2019-05-09T19:34:13.138Z,56.37
2019-05-09T19:36:39.413Z,57.24
2019-05-09T19:39:07.041Z,56.51
2019-05-09T19:41:34.179Z,56.67
2019-05-09T19:44:00.418Z,58.13
2019-05-09T19:46:26.673Z,58.86
2019-05-09T19:48:52.905Z,58.57
2019-05-09T19:51:19.161Z,58.67
2019-05-09T19:53:45.380Z,57.93
2019-05-09T19:56:11.625Z,59.08
2019-05-09T19:58:37.868Z,60.50
2019-05-09T20:01:04.101Z,61.36
2019-05-09T20:03:30.331Z,60.52
2019-05-09T20:05:56.572Z,61.95
2019-05-09T20:08:22.852Z,62.50
2019-05-09T20:11:06.292Z,63.41
2019-05-09T20:13:36.153Z,63.62
2019-05-09T20:16:02.383Z,63.80
2019-05-09T20:18:28.632Z,64.92
2019-05-09T20:20:54.863Z,64.46
2019-05-09T20:23:21.117Z,65.55
2019-05-09T20:25:47.345Z,65.27
2019-05-09T20:28:13.581Z,65.78
2019-05-09T20:30:39.824Z,66.12
2019-05-09T20:33:06.067Z,65.53
2019-05-09T20:35:32.302Z,66.32
2019-05-09T20:37:58.553Z,65.95
2019-05-09T20:40:24.774Z,66.21
2019-05-09T20:42:51.052Z,67.58
2019-05-09T20:45:17.300Z,66.91
2019-05-09T20:47:43.537Z,67.12
2019-05-09T20:50:09.966Z,67.22
2019-05-09T20:52:36.217Z,67.02
2019-05-09T20:55:03.657Z,67.22
2019-05-09T20:57:29.879Z,68.48
2019-05-09T20:59:56.139Z,67.97
2019-05-09T21:02:22.346Z,67.14
2019-05-09T21:04:48.618Z,67.32
2019-05-09T21:07:14.815Z,69.00
2019-05-09T21:09:41.062Z,67.67
2019-05-09T21:12:10.616Z,68.08
2019-05-09T21:14:35.440Z,68.17
2019-05-09T21:17:01.668Z,68.13
2019-05-09T21:19:27.943Z,68.39
2019-05-09T21:21:54.194Z,68.64
2019-05-09T21:24:20.464Z,68.97
2019-05-09T21:26:46.703Z,69.04
2019-05-09T21:29:12.941Z,69.14
2019-05-09T21:31:39.180Z,69.69
2019-05-09T21:34:05.431Z,69.91
2019-05-09T21:36:31.659Z,70.03
2019-05-09T21:38:57.926Z,70.48
2019-05-09T21:41:24.165Z,70.74
2019-05-09T21:43:50.405Z,71.34
2019-05-09T21:46:16.663Z,70.45
2019-05-09T21:48:42.910Z,70.23
2019-05-09T21:51:09.155Z,70.48
2019-05-09T21:53:41.011Z,71.14
2019-05-09T21:56:03.645Z,71.37
2019-05-09T21:58:29.877Z,71.77
2019-05-09T22:00:58.870Z,71.81
2019-05-09T22:03:25.313Z,72.47
2019-05-09T22:05:51.552Z,72.62
2019-05-09T22:08:17.781Z,72.35
2019-05-09T22:10:45.823Z,72.77
2019-05-09T22:13:12.044Z,74.15
2019-05-09T22:15:38.296Z,73.23
2019-05-09T22:18:04.523Z,73.90
2019-05-09T22:20:30.763Z,73.75
2019-05-09T22:22:57.007Z,73.80
2019-05-09T22:25:23.267Z,74.02
2019-05-09T22:27:49.513Z,73.70
2019-05-09T22:30:16.291Z,75.09
2019-05-09T22:32:42.518Z,74.97
2019-05-09T22:35:09.254Z,75.30
2019-05-09T22:37:35.504Z,75.68
2019-05-09T22:40:01.944Z,75.71
2019-05-09T22:42:28.199Z,76.87
2019-05-09T22:44:54.443Z,76.55
2019-05-09T22:47:20.686Z,76.86
2019-05-09T22:49:46.913Z,77.15
2019-05-09T22:52:13.168Z,77.94
2019-05-09T22:54:39.403Z,78.15
2019-05-09T22:57:05.656Z,79.23
2019-05-09T22:59:31.889Z,79.48
2019-05-09T23:01:58.166Z,79.63
2019-05-09T23:04:27.433Z,79.12
2019-05-09T23:06:53.697Z,79.89
2019-05-09T23:09:19.926Z,80.00
2019-05-09T23:11:46.166Z,79.34
2019-05-09T23:14:12.419Z,80.08
2019-05-09T23:16:39.965Z,80.41
2019-05-09T23:19:06.214Z,80.14
2019-05-09T23:21:32.477Z,80.82
2019-05-09T23:24:00.530Z,81.43
2019-05-09T23:26:26.753Z,82.07
2019-05-09T23:28:53.003Z,81.64
2019-05-09T23:34:09.644Z,81.87
2019-05-09T23:36:35.895Z,82.18
2019-05-09T23:39:09.731Z,82.72
2019-05-09T23:41:35.960Z,82.25
2019-05-09T23:44:02.212Z,82.57
2019-05-09T23:46:28.470Z,82.71
2019-05-09T23:48:54.744Z,82.37
2019-05-09T23:51:21.672Z,83.01
2019-05-09T23:53:53.757Z,82.70
2019-05-09T23:56:38.625Z,84.11
2019-05-09T23:59:23.151Z,84.49
